createdAt,value
2022-08-28T00:00:51.575Z,4.60
2022-08-28T00:03:22.969Z,4.50
2022-08-28T00:05:54.397Z,4.20
2022-08-28T00:08:26.336Z,4.40
2022-08-28T00:10:58.367Z,4.80
2022-08-28T00:13:29.877Z,4.80
2022-08-28T00:16:02.817Z,4.90
2022-08-28T00:18:35.778Z,4.70
2022-08-28T00:21:07.878Z,4.80
2022-08-28T00:23:42.443Z,5.20
2022-08-28T00:26:35.330Z,5.10
2022-08-28T00:29:07.429Z,5.40
2022-08-28T00:31:39.988Z,4.50
2022-08-28T00:34:13.557Z,4.70
2022-08-28T00:36:44.912Z,4.70
2022-08-28T00:39:16.463Z,5.40
2022-08-28T00:41:57.891Z,4.70
2022-08-28T00:44:30.777Z,5.30
2022-08-28T00:47:02.716Z,5.20
2022-08-28T00:49:36.639Z,4.80
2022-08-28T00:52:12.466Z,4.70
2022-08-28T00:54:58.598Z,4.80
2022-08-28T00:57:35.864Z,4.80
2022-08-28T01:00:10.330Z,5.30
2022-08-28T01:05:12.268Z,5.40
2022-08-28T01:07:43.967Z,5.50
2022-08-28T01:10:19.846Z,5.10
2022-08-28T01:12:54.762Z,5.30
2022-08-28T01:15:31.432Z,5.00
2022-08-28T01:18:12.192Z,5.10
2022-08-28T01:20:50.432Z,4.90
2022-08-28T01:23:31.246Z,5.50
2022-08-28T01:26:02.739Z,5.50
2022-08-28T01:28:42.526Z,5.70
2022-08-28T01:31:15.086Z,5.60
2022-08-28T01:36:44.776Z,5.60
2022-08-28T01:39:18.966Z,5.00
2022-08-28T01:41:52.398Z,5.90
2022-08-28T01:44:26.519Z,5.40
2022-08-28T01:47:00.257Z,6.00
2022-08-28T01:49:31.716Z,6.40
2022-08-28T01:52:03.358Z,6.40
2022-08-28T01:54:34.871Z,6.60
2022-08-28T01:57:07.705Z,5.80
2022-08-28T01:59:39.185Z,6.00
2022-08-28T02:02:12.353Z,6.20
2022-08-28T02:04:47.903Z,6.70
2022-08-28T02:07:19.776Z,6.30
2022-08-28T02:09:52.016Z,6.40
2022-08-28T02:12:23.457Z,6.40
2022-08-28T02:14:55.348Z,6.90
2022-08-28T02:17:27.706Z,6.90
2022-08-28T02:19:59.573Z,6.90
2022-08-28T02:22:31.325Z,6.90
2022-08-28T02:25:04.509Z,6.60
2022-08-28T02:27:36.586Z,7.20
2022-08-28T02:30:14.904Z,7.80
2022-08-28T02:32:47.530Z,7.30
2022-08-28T02:35:21.894Z,7.80
2022-08-28T02:40:28.052Z,7.80
2022-08-28T02:43:00.101Z,7.00
2022-08-28T02:45:31.448Z,7.70
2022-08-28T02:48:03.575Z,8.10
2022-08-28T02:50:35.048Z,8.10
2022-08-28T02:53:06.364Z,8.50
2022-08-28T02:55:37.747Z,8.00
2022-08-28T02:58:09.941Z,8.40
2022-08-28T03:00:41.751Z,7.70
2022-08-28T03:03:13.679Z,8.20
2022-08-28T03:05:45.518Z,7.90
2022-08-28T03:08:17.392Z,8.00
2022-08-28T03:10:49.227Z,7.90
2022-08-28T03:13:26.816Z,8.40
2022-08-28T03:15:59.297Z,8.20
2022-08-28T03:18:31.387Z,8.60
2022-08-28T03:21:02.708Z,7.60
2022-08-28T03:23:34.118Z,8.00
2022-08-28T03:26:07.696Z,8.70
2022-08-28T03:28:41.445Z,8.90
2022-08-28T03:31:17.187Z,7.50
2022-08-28T03:33:55.316Z,9.00
2022-08-28T03:36:33.376Z,9.40
2022-08-28T03:39:12.512Z,9.30
2022-08-28T03:41:43.768Z,8.50
2022-08-28T03:44:16.045Z,9.30
2022-08-28T03:46:47.567Z,8.30
2022-08-28T03:49:19.071Z,9.20
2022-08-28T03:51:52.080Z,8.80
2022-08-28T03:54:23.594Z,8.40
2022-08-28T03:56:55.029Z,9.30
2022-08-28T03:59:29.738Z,8.50
2022-08-28T04:02:05.078Z,9.00
2022-08-28T04:04:37.000Z,8.40
2022-08-28T04:07:09.179Z,8.00
2022-08-28T04:09:40.670Z,9.00
2022-08-28T04:12:14.766Z,9.40
2022-08-28T04:14:46.094Z,8.40
2022-08-28T04:17:17.881Z,10.00
2022-08-28T04:19:49.796Z,8.90
2022-08-28T04:22:21.261Z,8.60
2022-08-28T04:24:54.958Z,8.70
2022-08-28T04:27:26.411Z,8.70
2022-08-28T04:29:58.058Z,9.60
2022-08-28T04:32:29.475Z,9.10
2022-08-28T04:35:01.571Z,8.80
2022-08-28T04:37:33.215Z,9.10
2022-08-28T04:40:06.079Z,10.00
2022-08-28T04:42:37.502Z,9.00
2022-08-28T04:45:11.668Z,9.20
2022-08-28T04:47:43.576Z,8.50
2022-08-28T04:50:15.300Z,8.90
2022-08-28T04:52:46.580Z,9.40
2022-08-28T04:55:18.246Z,9.90
2022-08-28T04:57:59.518Z,9.10
2022-08-28T05:00:30.961Z,9.40
2022-08-28T05:03:02.333Z,9.60
2022-08-28T05:05:34.565Z,9.70
2022-08-28T05:08:07.034Z,10.70
2022-08-28T05:10:38.436Z,8.80
2022-08-28T05:13:10.336Z,9.00
2022-08-28T05:15:44.822Z,9.30
2022-08-28T05:18:17.125Z,9.10
2022-08-28T05:20:50.159Z,9.00
2022-08-28T05:23:22.051Z,9.20
2022-08-28T05:25:57.048Z,8.80
2022-08-28T05:28:28.343Z,8.60
2022-08-28T05:31:09.590Z,8.10
2022-08-28T05:33:41.089Z,8.40
2022-08-28T05:36:13.323Z,8.90
2022-08-28T05:38:44.792Z,9.00
2022-08-28T05:41:23.134Z,8.40
2022-08-28T05:43:54.523Z,8.80
2022-08-28T05:46:28.557Z,8.10
2022-08-28T05:49:00.636Z,8.90
2022-08-28T05:51:34.688Z,9.00
2022-08-28T05:56:39.592Z,8.60
2022-08-28T05:59:12.232Z,8.20
2022-08-28T06:01:46.500Z,8.50
2022-08-28T06:04:22.913Z,7.80
2022-08-28T06:06:54.792Z,8.00
2022-08-28T06:09:29.650Z,7.80
2022-08-28T06:12:03.409Z,7.80
2022-08-28T06:14:35.359Z,7.60
2022-08-28T06:17:07.455Z,7.80
2022-08-28T06:19:41.702Z,7.00
2022-08-28T06:22:15.089Z,8.80
2022-08-28T06:24:46.445Z,9.10
2022-08-28T06:27:18.049Z,7.90
2022-08-28T06:29:49.494Z,7.30
2022-08-28T06:32:21.402Z,6.90
2022-08-28T06:34:52.925Z,6.90
2022-08-28T06:37:24.315Z,6.40
2022-08-28T06:39:56.122Z,5.70
2022-08-28T06:42:31.562Z,6.70
2022-08-28T06:45:03.577Z,6.60
2022-08-28T06:47:35.042Z,7.10
2022-08-28T06:50:07.150Z,6.50
2022-08-28T06:52:40.875Z,6.40
2022-08-28T06:55:14.064Z,6.10
2022-08-28T06:57:47.101Z,5.90
2022-08-28T07:00:19.301Z,6.40
2022-08-28T07:02:50.841Z,6.00
2022-08-28T07:05:22.492Z,6.40
2022-08-28T07:07:54.847Z,6.70
2022-08-28T07:10:26.837Z,6.80
2022-08-28T07:12:58.978Z,6.70
2022-08-28T07:15:30.259Z,6.80
2022-08-28T07:18:01.700Z,6.40
2022-08-28T07:20:33.228Z,6.80
2022-08-28T07:23:04.615Z,6.00
2022-08-28T07:25:36.920Z,6.40
2022-08-28T07:28:08.330Z,6.90
2022-08-28T07:30:39.883Z,6.70
2022-08-28T07:33:11.502Z,6.90
2022-08-28T07:35:46.362Z,7.00
2022-08-28T07:38:17.728Z,6.70
2022-08-28T07:40:49.324Z,7.00
2022-08-28T07:43:38.071Z,7.00
2022-08-28T07:46:12.854Z,6.30
2022-08-28T07:48:48.257Z,6.70
2022-08-28T07:51:19.581Z,6.50
2022-08-28T07:53:50.960Z,6.30
2022-08-28T07:56:22.624Z,5.70
2022-08-28T07:58:54.028Z,5.80
2022-08-28T08:01:25.932Z,6.30
2022-08-28T08:04:01.514Z,5.70
2022-08-28T08:06:34.331Z,5.50
2022-08-28T08:09:07.291Z,5.30
2022-08-28T08:11:38.672Z,6.10
2022-08-28T08:14:10.234Z,6.60
2022-08-28T08:16:43.799Z,5.30
2022-08-28T08:19:16.622Z,5.90
2022-08-28T08:21:53.300Z,6.40
2022-08-28T08:24:27.296Z,6.10
2022-08-28T08:27:01.146Z,6.50
2022-08-28T08:29:35.979Z,6.00
2022-08-28T08:32:10.169Z,6.40
2022-08-28T08:34:46.158Z,6.80
2022-08-28T08:37:17.693Z,6.90
2022-08-28T08:39:49.375Z,6.60
2022-08-28T08:42:26.711Z,6.70
2022-08-28T08:45:04.268Z,6.60
2022-08-28T08:47:42.276Z,7.00
2022-08-28T08:50:19.313Z,6.60
2022-08-28T08:53:03.964Z,6.90
2022-08-28T08:55:43.575Z,6.50
2022-08-28T08:58:21.623Z,7.10
2022-08-28T09:01:06.399Z,7.00
2022-08-28T09:03:53.106Z,6.70
2022-08-28T09:06:34.252Z,6.80
2022-08-28T09:09:16.316Z,7.40
2022-08-28T09:11:57.078Z,7.50
2022-08-28T09:14:38.750Z,6.60
2022-08-28T09:17:11.880Z,6.20
2022-08-28T09:19:43.633Z,6.90
2022-08-28T09:22:16.311Z,6.20
2022-08-28T09:24:48.514Z,6.20
2022-08-28T09:27:28.810Z,6.40
2022-08-28T09:30:07.508Z,6.00
2022-08-28T09:32:43.956Z,5.80
2022-08-28T09:35:28.386Z,5.60
2022-08-28T09:40:52.369Z,5.80
2022-08-28T09:43:30.267Z,5.30
2022-08-28T09:46:04.745Z,5.40
2022-08-28T09:48:40.113Z,5.50
2022-08-28T09:51:15.328Z,5.60
2022-08-28T09:54:02.539Z,5.40
2022-08-28T09:56:37.303Z,5.30
2022-08-28T09:59:10.684Z,5.40
2022-08-28T10:01:57.030Z,5.00
2022-08-28T10:04:52.958Z,5.00
2022-08-28T10:07:31.779Z,4.80
2022-08-28T10:10:15.024Z,5.00
2022-08-28T10:13:00.826Z,4.80
2022-08-28T10:15:43.313Z,4.40
2022-08-28T10:18:27.672Z,4.70
2022-08-28T10:21:05.757Z,4.40
2022-08-28T10:23:47.165Z,4.50
2022-08-28T10:26:29.097Z,4.10
2022-08-28T10:29:13.003Z,4.50
2022-08-28T10:31:52.427Z,4.20
2022-08-28T10:34:43.597Z,4.60
2022-08-28T10:37:25.662Z,4.50
2022-08-28T10:40:00.519Z,4.50
2022-08-28T10:42:38.074Z,4.50
2022-08-28T10:45:14.362Z,4.40
2022-08-28T10:47:50.168Z,4.10
2022-08-28T10:50:28.514Z,3.80
2022-08-28T10:53:03.034Z,3.80
2022-08-28T10:55:39.071Z,3.80
2022-08-28T10:58:24.128Z,4.10
2022-08-28T11:00:58.711Z,4.20
2022-08-28T11:03:34.787Z,4.10
2022-08-28T11:06:14.702Z,3.90
2022-08-28T11:08:55.102Z,3.90
2022-08-28T11:11:45.620Z,4.30
2022-08-28T11:14:30.298Z,4.10
2022-08-28T11:17:04.138Z,4.20
2022-08-28T11:20:07.504Z,3.50
2022-08-28T11:22:43.700Z,3.60
2022-08-28T11:25:26.564Z,3.50
2022-08-28T11:28:20.129Z,3.60
2022-08-28T11:31:16.356Z,3.50
2022-08-28T11:34:01.330Z,3.10
2022-08-28T11:37:05.797Z,3.80
2022-08-28T11:39:37.241Z,3.40
2022-08-28T11:42:35.489Z,3.30
2022-08-28T11:45:08.270Z,3.90
2022-08-28T11:47:58.019Z,3.50
2022-08-28T11:50:53.340Z,3.50
2022-08-28T11:53:53.199Z,3.90
2022-08-28T11:56:49.578Z,3.50
2022-08-28T11:59:37.785Z,3.90
2022-08-28T12:02:49.069Z,3.70
2022-08-28T12:05:52.552Z,3.50
2022-08-28T12:09:10.195Z,2.60
2022-08-28T12:12:03.044Z,2.90
2022-08-28T12:15:11.201Z,2.70
2022-08-28T12:17:51.874Z,2.80
2022-08-28T12:20:58.918Z,3.30
2022-08-28T12:23:46.344Z,2.90
2022-08-28T12:26:27.441Z,3.40
2022-08-28T12:29:02.108Z,3.00
2022-08-28T12:32:19.006Z,3.40
2022-08-28T12:35:21.302Z,3.10
2022-08-28T12:38:04.725Z,3.70
2022-08-28T12:40:50.709Z,3.50
2022-08-28T12:43:41.693Z,4.60
2022-08-28T12:46:25.177Z,5.40
2022-08-28T12:49:00.113Z,6.30
2022-08-28T12:51:33.946Z,4.30
2022-08-28T12:56:38.886Z,3.70
2022-08-28T13:02:04.893Z,3.50
2022-08-28T13:04:40.059Z,3.70
2022-08-28T13:07:15.288Z,4.50
2022-08-28T13:09:51.858Z,4.50
2022-08-28T13:12:44.145Z,6.10
2022-08-28T13:15:48.100Z,4.30
2022-08-28T13:18:41.658Z,6.00
2022-08-28T13:21:33.949Z,5.00
2022-08-28T13:24:27.621Z,5.60
2022-08-28T13:27:09.195Z,6.00
2022-08-28T13:29:52.142Z,5.90
2022-08-28T13:32:30.447Z,5.90
2022-08-28T13:35:32.458Z,6.00
2022-08-28T13:38:05.351Z,6.20
2022-08-28T13:41:00.632Z,6.50
2022-08-28T13:43:47.355Z,6.70
2022-08-28T13:46:19.163Z,5.80
2022-08-28T13:48:50.646Z,6.20
2022-08-28T13:51:25.073Z,12.00
2022-08-28T13:53:56.412Z,7.70
2022-08-28T13:56:32.194Z,6.70
2022-08-28T13:59:03.607Z,7.20
2022-08-28T14:01:50.041Z,9.40
2022-08-28T14:04:21.700Z,8.50
2022-08-28T14:06:53.755Z,8.40
2022-08-28T14:09:27.359Z,9.90
2022-08-28T14:11:58.931Z,11.50
2022-08-28T14:14:30.551Z,9.10
2022-08-28T14:17:02.680Z,8.20
2022-08-28T14:19:34.201Z,7.70
2022-08-28T14:22:05.825Z,8.20
2022-08-28T14:24:37.509Z,7.80
2022-08-28T14:27:09.162Z,8.00
2022-08-28T14:29:41.622Z,7.90
2022-08-28T14:32:12.957Z,7.20
2022-08-28T14:34:44.373Z,8.30
2022-08-28T14:37:17.397Z,8.00
2022-08-28T14:39:50.806Z,8.30
2022-08-28T14:42:22.546Z,8.60
2022-08-28T14:44:53.970Z,8.20
2022-08-28T14:47:25.845Z,8.30
2022-08-28T14:49:58.788Z,8.30
2022-08-28T14:52:31.735Z,7.80
2022-08-28T14:55:03.524Z,8.10
2022-08-28T14:57:35.101Z,8.30
2022-08-28T15:00:08.406Z,7.00
2022-08-28T15:02:47.914Z,6.60
2022-08-28T15:05:19.797Z,7.10
2022-08-28T15:07:51.935Z,7.50
2022-08-28T15:10:23.845Z,7.40
2022-08-28T15:12:55.414Z,7.80
2022-08-28T15:15:27.208Z,7.40
2022-08-28T15:17:58.924Z,8.00
2022-08-28T15:20:30.610Z,7.50
2022-08-28T15:23:02.382Z,7.40
2022-08-28T15:25:33.918Z,7.40
2022-08-28T15:28:05.649Z,7.80
2022-08-28T15:30:37.825Z,7.80
2022-08-28T15:33:09.657Z,7.40
2022-08-28T15:35:41.409Z,9.00
2022-08-28T15:38:13.467Z,8.10
2022-08-28T15:41:02.453Z,4.40
2022-08-28T15:43:34.284Z,3.40
2022-08-28T15:46:13.630Z,2.60
2022-08-28T15:48:45.233Z,2.60
2022-08-28T15:51:20.800Z,3.00
2022-08-28T15:53:54.193Z,3.40
2022-08-28T15:56:26.381Z,3.90
2022-08-28T15:58:57.790Z,4.00
2022-08-28T16:01:29.327Z,4.00
2022-08-28T16:04:00.790Z,4.00
2022-08-28T16:06:32.900Z,2.80
2022-08-28T16:09:05.594Z,2.70
2022-08-28T16:11:38.746Z,2.30
2022-08-28T16:14:12.006Z,2.70
2022-08-28T16:16:46.311Z,2.60
2022-08-28T16:19:20.622Z,2.70
2022-08-28T16:21:51.949Z,2.70
2022-08-28T16:24:23.489Z,2.60
2022-08-28T16:26:54.993Z,2.70
2022-08-28T16:29:26.667Z,2.30
2022-08-28T16:31:58.279Z,1.80
2022-08-28T16:34:31.562Z,2.40
2022-08-28T16:37:03.431Z,3.00
2022-08-28T16:39:35.022Z,3.10
2022-08-28T16:42:06.853Z,3.30
2022-08-28T16:44:38.354Z,3.30
2022-08-28T16:47:10.371Z,3.00
2022-08-28T16:49:41.822Z,3.40
2022-08-28T16:52:13.184Z,3.40
2022-08-28T16:54:47.489Z,2.80
2022-08-28T16:57:21.898Z,2.70
2022-08-28T16:59:53.695Z,2.70
2022-08-28T17:02:26.414Z,2.50
2022-08-28T17:05:00.866Z,3.10
2022-08-28T17:07:32.929Z,3.60
2022-08-28T17:10:06.646Z,3.50
2022-08-28T17:12:38.071Z,3.10
2022-08-28T17:15:12.109Z,3.70
2022-08-28T17:17:43.665Z,3.50
2022-08-28T17:20:29.626Z,3.90
2022-08-28T17:23:02.303Z,4.20
2022-08-28T17:25:34.151Z,4.30
2022-08-28T17:28:06.550Z,4.50
2022-08-28T17:30:38.329Z,4.00
2022-08-28T17:33:09.951Z,3.90
2022-08-28T17:35:42.378Z,4.50
2022-08-28T17:38:14.433Z,4.70
2022-08-28T17:40:46.292Z,4.60
2022-08-28T17:43:18.411Z,4.20
2022-08-28T17:45:49.959Z,4.30
2022-08-28T17:48:21.772Z,4.10
2022-08-28T17:50:53.654Z,4.40
2022-08-28T17:53:27.807Z,4.50
2022-08-28T17:56:00.618Z,4.00
2022-08-28T17:58:36.951Z,4.00
2022-08-28T18:01:09.116Z,4.10
2022-08-28T18:03:53.044Z,4.30
2022-08-28T18:06:25.733Z,4.10
2022-08-28T18:08:57.865Z,4.20
2022-08-28T18:11:29.599Z,4.60
2022-08-28T18:14:01.626Z,4.70
2022-08-28T18:16:36.302Z,4.50
2022-08-28T18:19:10.239Z,4.30
2022-08-28T18:21:42.815Z,4.40
2022-08-28T18:24:15.010Z,4.10
2022-08-28T18:26:48.042Z,4.00
2022-08-28T18:29:20.518Z,4.30
2022-08-28T18:31:52.566Z,4.60
2022-08-28T18:34:24.384Z,5.10
2022-08-28T18:36:57.667Z,5.30
2022-08-28T18:39:30.244Z,5.30
2022-08-28T18:42:02.747Z,5.50
2022-08-28T18:44:34.860Z,6.00
2022-08-28T18:47:06.951Z,5.60
2022-08-28T18:49:39.150Z,5.30
2022-08-28T18:52:10.997Z,5.50
2022-08-28T18:54:43.249Z,5.60
2022-08-28T18:57:19.129Z,6.00
2022-08-28T18:59:52.057Z,5.60
2022-08-28T19:02:25.419Z,6.10
2022-08-28T19:04:58.883Z,6.00
2022-08-28T19:07:31.580Z,6.30
2022-08-28T19:10:04.073Z,5.90
2022-08-28T19:12:36.270Z,5.90
2022-08-28T19:15:11.582Z,6.20
2022-08-28T19:17:45.089Z,5.60
2022-08-28T19:20:19.981Z,6.30
2022-08-28T19:22:52.332Z,6.00
2022-08-28T19:25:29.335Z,6.50
2022-08-28T19:28:03.034Z,6.30
2022-08-28T19:30:38.166Z,5.20
2022-08-28T19:33:13.144Z,5.90
2022-08-28T19:35:45.155Z,5.50
2022-08-28T19:38:17.231Z,5.30
2022-08-28T19:40:49.392Z,5.70
2022-08-28T19:43:21.815Z,6.10
2022-08-28T19:45:55.699Z,5.20
2022-08-28T19:48:27.638Z,6.30
2022-08-28T19:51:08.066Z,5.90
2022-08-28T19:53:56.151Z,5.80
2022-08-28T19:56:30.594Z,6.30
2022-08-28T19:59:03.953Z,6.50
2022-08-28T20:01:39.829Z,6.80
2022-08-28T20:04:14.069Z,6.20
2022-08-28T20:06:46.655Z,6.20
2022-08-28T20:09:22.501Z,6.20
2022-08-28T20:11:55.956Z,6.00
2022-08-28T20:14:27.795Z,6.10
2022-08-28T20:17:02.864Z,6.20
2022-08-28T20:19:34.886Z,6.50
2022-08-28T20:22:07.159Z,7.00
2022-08-28T20:24:39.670Z,7.40
2022-08-28T20:27:11.400Z,7.20
2022-08-28T20:29:44.044Z,6.80
2022-08-28T20:32:15.627Z,6.50
2022-08-28T20:34:46.924Z,6.70
2022-08-28T20:37:19.611Z,6.30
2022-08-28T20:39:51.107Z,6.20
2022-08-28T20:42:22.430Z,6.00
2022-08-28T20:44:56.916Z,5.50
2022-08-28T20:47:28.778Z,5.90
2022-08-28T20:50:00.411Z,5.60
2022-08-28T20:52:31.964Z,5.70
2022-08-28T20:55:03.383Z,5.40
2022-08-28T20:57:35.068Z,5.60
2022-08-28T21:00:08.325Z,5.60
2022-08-28T21:02:39.917Z,5.50
2022-08-28T21:05:13.758Z,6.00
2022-08-28T21:07:45.241Z,5.80
2022-08-28T21:10:16.572Z,5.20
2022-08-28T21:12:47.963Z,6.20
2022-08-28T21:15:19.666Z,5.40
2022-08-28T21:17:52.484Z,5.70
2022-08-28T21:20:26.033Z,6.20
2022-08-28T21:22:59.017Z,6.60
2022-08-28T21:25:30.912Z,8.30
2022-08-28T21:28:04.232Z,7.60
2022-08-28T21:30:36.114Z,6.50
2022-08-28T21:33:07.746Z,6.70
2022-08-28T21:35:41.227Z,5.60
2022-08-28T21:38:12.895Z,5.70
2022-08-28T21:40:44.925Z,5.70
2022-08-28T21:43:16.656Z,6.10
2022-08-28T21:45:58.153Z,5.50
2022-08-28T21:48:30.160Z,5.70
2022-08-28T21:51:01.916Z,6.00
2022-08-28T21:53:36.373Z,6.00
2022-08-28T21:56:10.449Z,6.10
2022-08-28T21:58:42.211Z,6.70
2022-08-28T22:01:17.026Z,5.90
2022-08-28T22:03:48.997Z,6.20
2022-08-28T22:06:22.680Z,6.30
2022-08-28T22:08:54.947Z,7.10
2022-08-28T22:11:28.257Z,6.50
2022-08-28T22:14:00.137Z,7.10
2022-08-28T22:16:31.772Z,7.10
2022-08-28T22:19:04.119Z,6.70
2022-08-28T22:21:53.628Z,8.00
2022-08-28T22:24:25.011Z,8.40
2022-08-28T22:26:57.575Z,7.80
2022-08-28T22:29:36.459Z,8.90
2022-08-28T22:32:10.673Z,8.70
2022-08-28T22:34:45.102Z,9.10
2022-08-28T22:39:46.588Z,8.80
2022-08-28T22:42:18.748Z,9.20
2022-08-28T22:44:51.470Z,9.20
2022-08-28T22:47:22.659Z,9.20
2022-08-28T22:49:56.414Z,9.00
2022-08-28T22:52:27.909Z,9.10
2022-08-28T22:54:59.200Z,9.70
2022-08-28T22:57:31.264Z,9.60
2022-08-28T23:00:04.463Z,8.70
2022-08-28T23:02:36.506Z,9.70
2022-08-28T23:05:08.887Z,9.90
2022-08-28T23:07:40.671Z,9.70
2022-08-28T23:10:14.066Z,9.50
2022-08-28T23:12:46.185Z,9.10
2022-08-28T23:15:19.914Z,9.20
2022-08-28T23:17:51.598Z,9.70
2022-08-28T23:20:24.455Z,9.10
2022-08-28T23:22:58.363Z,10.10
2022-08-28T23:25:31.102Z,9.30
2022-08-28T23:28:06.304Z,9.80
2022-08-28T23:30:39.165Z,9.30
2022-08-28T23:33:10.616Z,9.20
2022-08-28T23:35:43.290Z,10.00
2022-08-28T23:38:14.859Z,9.20
2022-08-28T23:40:46.515Z,8.50
2022-08-28T23:43:18.846Z,9.00
2022-08-28T23:45:52.336Z,8.80
2022-08-28T23:48:25.235Z,8.50
2022-08-28T23:50:57.229Z,8.30
2022-08-28T23:53:30.706Z,8.10
2022-08-28T23:56:02.429Z,8.00
2022-08-28T23:58:33.921Z,7.90
